createdAt,value
2022-08-26T00:02:16.341Z,20.11
2022-08-26T00:04:46.702Z,20.13
2022-08-26T00:07:13.643Z,20.28
2022-08-26T00:09:40.795Z,20.23
2022-08-26T00:12:09.540Z,20.25
2022-08-26T00:14:39.647Z,20.29
2022-08-26T00:17:06.484Z,20.28
2022-08-26T00:19:35.868Z,20.24
2022-08-26T00:22:02.747Z,20.03
2022-08-26T00:24:29.656Z,20.10
2022-08-26T00:26:58.388Z,20.25
2022-08-26T00:29:25.504Z,20.21
2022-08-26T00:31:52.651Z,20.13
2022-08-26T00:34:19.772Z,20.29
2022-08-26T00:36:49.284Z,20.16
2022-08-26T00:39:20.052Z,20.18
2022-08-26T00:41:47.838Z,20.07
2022-08-26T00:44:19.291Z,19.95
2022-08-26T00:46:53.581Z,19.98
2022-08-26T00:49:44.868Z,20.05
2022-08-26T00:52:19.924Z,20.07
2022-08-26T00:54:53.340Z,20.06
2022-08-26T00:57:21.486Z,20.05
2022-08-26T00:59:54.345Z,20.12
2022-08-26T01:02:21.824Z,20.01
2022-08-26T01:04:56.178Z,20.03
2022-08-26T01:07:26.403Z,19.98
2022-08-26T01:09:56.965Z,20.05
2022-08-26T01:12:27.936Z,19.96
2022-08-26T01:14:55.798Z,20.00
2022-08-26T01:17:22.729Z,20.00
2022-08-26T01:19:56.657Z,20.08
2022-08-26T01:22:30.159Z,19.93
2022-08-26T01:25:00.938Z,20.01
2022-08-26T01:27:32.941Z,20.03
2022-08-26T01:30:02.169Z,20.02
2022-08-26T01:32:33.103Z,19.97
2022-08-26T01:35:01.063Z,19.87
2022-08-26T01:37:34.847Z,19.85
2022-08-26T01:40:02.611Z,19.85
2022-08-26T01:42:36.099Z,19.85
2022-08-26T01:45:11.302Z,19.94
2022-08-26T01:47:43.227Z,19.83
2022-08-26T01:50:27.548Z,19.86
2022-08-26T01:52:59.850Z,19.92
2022-08-26T01:55:38.669Z,19.73
2022-08-26T01:58:11.743Z,19.76
2022-08-26T02:00:39.626Z,19.72
2022-08-26T02:03:17.150Z,19.69
2022-08-26T02:05:48.774Z,19.72
2022-08-26T02:08:24.576Z,19.59
2022-08-26T02:10:54.812Z,19.56
2022-08-26T02:13:25.448Z,19.54
2022-08-26T02:15:54.450Z,19.66
2022-08-26T02:18:22.850Z,19.65
2022-08-26T02:20:51.714Z,19.61
2022-08-26T02:23:18.742Z,19.56
2022-08-26T02:26:00.416Z,19.59
2022-08-26T02:28:33.320Z,19.44
2022-08-26T02:31:00.136Z,19.58
2022-08-26T02:33:30.385Z,19.53
2022-08-26T02:35:59.483Z,19.52
2022-08-26T02:38:26.603Z,19.61
2022-08-26T02:40:56.691Z,19.55
2022-08-26T02:43:31.432Z,19.61
2022-08-26T02:46:01.833Z,19.55
2022-08-26T02:48:30.271Z,19.52
2022-08-26T02:51:01.770Z,19.53
2022-08-26T02:53:31.803Z,19.49
2022-08-26T02:55:59.865Z,19.37
2022-08-26T02:58:27.296Z,19.41
2022-08-26T03:00:55.155Z,19.47
2022-08-26T03:03:23.745Z,19.45
2022-08-26T03:05:51.554Z,19.50
2022-08-26T03:08:18.393Z,19.45
2022-08-26T03:10:47.514Z,19.56
2022-08-26T03:13:17.146Z,19.43
2022-08-26T03:15:44.139Z,19.37
2022-08-26T03:18:13.363Z,19.36
2022-08-26T03:20:40.294Z,19.45
2022-08-26T03:23:08.029Z,19.41
2022-08-26T03:25:35.883Z,19.51
2022-08-26T03:28:09.525Z,19.54
2022-08-26T03:30:44.923Z,19.64
2022-08-26T03:33:19.109Z,19.52
2022-08-26T03:35:50.516Z,19.43
2022-08-26T03:38:20.623Z,19.37
2022-08-26T03:40:48.875Z,19.38
2022-08-26T03:43:17.937Z,19.36
2022-08-26T03:45:44.915Z,19.35
2022-08-26T03:48:13.015Z,19.40
2022-08-26T03:50:39.930Z,19.27
2022-08-26T03:53:07.488Z,19.40
2022-08-26T03:55:40.859Z,19.21
2022-08-26T03:58:08.000Z,19.33
2022-08-26T04:00:34.809Z,19.38
2022-08-26T04:03:03.223Z,19.31
2022-08-26T04:05:30.472Z,19.25
2022-08-26T04:07:57.262Z,19.30
2022-08-26T04:10:29.200Z,19.33
2022-08-26T04:12:58.792Z,19.48
2022-08-26T04:15:26.954Z,19.49
2022-08-26T04:17:54.000Z,19.44
2022-08-26T04:20:22.714Z,19.34
2022-08-26T04:22:50.124Z,19.34
2022-08-26T04:25:20.650Z,19.33
2022-08-26T04:27:48.258Z,19.33
2022-08-26T04:30:15.906Z,19.37
2022-08-26T04:32:43.615Z,19.46
2022-08-26T04:35:10.508Z,19.33
2022-08-26T04:37:37.585Z,19.30
2022-08-26T04:40:05.450Z,19.41
2022-08-26T04:42:33.546Z,19.34
2022-08-26T04:45:01.211Z,19.15
2022-08-26T04:47:32.110Z,19.13
2022-08-26T04:50:00.025Z,19.15
2022-08-26T04:52:26.723Z,19.33
2022-08-26T04:54:55.714Z,19.28
2022-08-26T04:57:23.284Z,19.16
2022-08-26T04:59:50.079Z,19.09
2022-08-26T05:02:16.949Z,19.15
2022-08-26T05:04:43.790Z,19.16
2022-08-26T05:07:10.900Z,19.13
2022-08-26T05:09:40.880Z,19.09
2022-08-26T05:12:11.175Z,19.06
2022-08-26T05:14:38.552Z,19.03
2022-08-26T05:17:05.957Z,18.96
2022-08-26T05:19:33.598Z,18.86
2022-08-26T05:22:00.360Z,18.90
2022-08-26T05:24:27.416Z,18.83
2022-08-26T05:26:54.206Z,18.89
2022-08-26T05:29:23.680Z,18.87
2022-08-26T05:31:52.183Z,18.93
2022-08-26T05:34:20.974Z,18.85
2022-08-26T05:36:48.151Z,18.94
2022-08-26T05:39:15.133Z,18.93
2022-08-26T05:41:43.203Z,19.10
2022-08-26T05:44:15.000Z,19.07
2022-08-26T05:46:44.815Z,19.24
2022-08-26T05:49:14.485Z,19.13
2022-08-26T05:51:45.161Z,19.28
2022-08-26T05:54:13.097Z,19.36
2022-08-26T05:56:40.362Z,19.40
2022-08-26T05:59:14.326Z,19.37
2022-08-26T06:01:43.546Z,19.38
2022-08-26T06:04:11.762Z,19.39
2022-08-26T06:06:41.566Z,19.41
2022-08-26T06:09:11.075Z,19.47
2022-08-26T06:11:38.838Z,19.52
2022-08-26T06:14:07.977Z,19.64
2022-08-26T06:16:38.644Z,19.67
2022-08-26T06:19:11.132Z,19.65
2022-08-26T06:21:41.233Z,19.60
2022-08-26T06:24:31.086Z,19.72
2022-08-26T06:27:03.616Z,19.66
2022-08-26T06:29:34.711Z,19.82
2022-08-26T06:32:03.647Z,19.85
2022-08-26T06:34:30.988Z,19.88
2022-08-26T06:37:01.385Z,20.02
2022-08-26T06:39:30.958Z,20.06
2022-08-26T06:41:59.485Z,20.06
2022-08-26T06:44:27.669Z,20.25
2022-08-26T06:46:55.080Z,20.24
2022-08-26T06:49:26.807Z,20.19
2022-08-26T06:51:58.580Z,20.20
2022-08-26T06:54:32.249Z,20.32
2022-08-26T06:56:59.645Z,20.30
2022-08-26T06:59:26.964Z,20.35
2022-08-26T07:01:54.756Z,20.38
2022-08-26T07:04:23.388Z,20.36
2022-08-26T07:06:53.564Z,20.38
2022-08-26T07:09:26.582Z,20.41
2022-08-26T07:11:56.215Z,20.48
2022-08-26T07:14:26.309Z,20.58
2022-08-26T07:16:53.884Z,20.54
2022-08-26T07:19:30.167Z,20.60
2022-08-26T07:22:04.701Z,20.82
2022-08-26T07:24:32.515Z,20.86
2022-08-26T07:27:05.421Z,20.99
2022-08-26T07:29:33.272Z,20.85
2022-08-26T07:32:01.840Z,20.71
2022-08-26T07:34:29.357Z,20.64
2022-08-26T07:36:57.415Z,20.69
2022-08-26T07:39:27.032Z,20.74
2022-08-26T07:41:54.455Z,20.70
2022-08-26T07:44:24.679Z,20.64
2022-08-26T07:46:53.199Z,20.61
2022-08-26T07:49:26.973Z,20.59
2022-08-26T07:52:29.806Z,20.66
2022-08-26T07:54:59.817Z,20.56
2022-08-26T07:57:28.706Z,20.42
2022-08-26T07:59:59.550Z,20.56
2022-08-26T08:02:28.857Z,20.37
2022-08-26T08:04:59.825Z,20.30
2022-08-26T08:07:44.415Z,20.41
2022-08-26T08:10:25.074Z,20.46
2022-08-26T08:12:53.159Z,20.38
2022-08-26T08:15:25.003Z,20.31
2022-08-26T08:17:57.622Z,20.36
2022-08-26T08:20:27.359Z,20.36
2022-08-26T08:23:01.603Z,20.42
2022-08-26T08:25:29.436Z,20.30
2022-08-26T08:27:56.242Z,20.34
2022-08-26T08:30:24.477Z,20.41
2022-08-26T08:32:51.706Z,20.47
2022-08-26T08:35:26.286Z,20.39
2022-08-26T08:37:58.281Z,20.41
2022-08-26T08:40:26.536Z,20.44
2022-08-26T08:42:59.407Z,20.35
2022-08-26T08:45:36.607Z,20.33
2022-08-26T08:48:18.861Z,20.49
2022-08-26T08:50:49.002Z,20.71
2022-08-26T08:53:23.223Z,20.78
2022-08-26T08:56:08.849Z,20.90
2022-08-26T08:58:42.421Z,21.04
2022-08-26T09:01:24.647Z,21.16
2022-08-26T09:04:17.305Z,21.15
2022-08-26T09:06:47.580Z,21.24
2022-08-26T09:09:29.261Z,21.35
2022-08-26T09:11:58.916Z,21.28
2022-08-26T09:14:25.950Z,21.22
2022-08-26T09:17:16.573Z,21.18
2022-08-26T09:19:52.570Z,21.08
2022-08-26T09:22:35.126Z,21.14
2022-08-26T09:25:04.995Z,21.16
2022-08-26T09:27:40.115Z,21.21
2022-08-26T09:30:08.683Z,21.27
2022-08-26T09:32:38.899Z,21.46
2022-08-26T09:35:24.429Z,21.60
2022-08-26T09:40:34.524Z,21.74
2022-08-26T09:43:08.780Z,21.57
2022-08-26T09:45:36.965Z,21.48
2022-08-26T09:48:03.913Z,21.44
2022-08-26T09:50:52.102Z,21.41
2022-08-26T09:53:25.334Z,21.34
2022-08-26T09:56:17.165Z,21.28
2022-08-26T09:58:49.286Z,21.35
2022-08-26T10:01:31.330Z,21.40
2022-08-26T10:04:12.235Z,21.54
2022-08-26T10:07:09.549Z,21.70
2022-08-26T10:09:39.821Z,21.71
2022-08-26T10:12:20.656Z,21.80
2022-08-26T10:14:47.643Z,21.70
2022-08-26T10:18:09.576Z,21.69
2022-08-26T10:20:49.356Z,21.68
2022-08-26T10:23:20.496Z,21.51
2022-08-26T10:26:04.743Z,21.56
2022-08-26T10:28:40.599Z,21.76
2022-08-26T10:31:27.577Z,21.86
2022-08-26T10:33:58.826Z,21.89
2022-08-26T10:37:10.837Z,22.32
2022-08-26T10:40:02.379Z,22.78
2022-08-26T10:42:44.676Z,22.74
2022-08-26T10:45:17.105Z,22.61
2022-08-26T10:47:52.653Z,22.69
2022-08-26T10:50:29.559Z,22.74
2022-08-26T10:53:08.735Z,22.73
2022-08-26T10:55:48.478Z,22.81
2022-08-26T10:58:44.555Z,22.45
2022-08-26T11:01:47.159Z,22.23
2022-08-26T11:04:46.925Z,22.21
2022-08-26T11:07:36.302Z,22.28
2022-08-26T11:10:10.137Z,22.18
2022-08-26T11:12:37.203Z,22.16
2022-08-26T11:15:10.284Z,22.08
2022-08-26T11:17:45.791Z,22.22
2022-08-26T11:20:33.332Z,22.17
2022-08-26T11:23:13.539Z,22.09
2022-08-26T11:26:01.501Z,22.14
2022-08-26T11:28:49.213Z,22.17
2022-08-26T11:31:19.285Z,22.18
2022-08-26T11:34:00.722Z,22.36
2022-08-26T11:36:45.489Z,22.45
2022-08-26T11:39:28.557Z,22.23
2022-08-26T11:42:00.026Z,22.18
2022-08-26T11:44:39.825Z,22.28
2022-08-26T11:47:11.696Z,22.35
2022-08-26T11:49:39.607Z,22.06
2022-08-26T11:52:16.451Z,21.96
2022-08-26T11:55:23.451Z,21.91
2022-08-26T11:57:55.821Z,21.70
2022-08-26T12:00:31.433Z,21.76
2022-08-26T12:03:06.330Z,21.70
2022-08-26T12:05:46.807Z,21.77
2022-08-26T12:08:21.714Z,21.70
2022-08-26T12:10:51.806Z,20.97
2022-08-26T12:13:26.455Z,20.84
2022-08-26T12:15:59.178Z,20.77
2022-08-26T12:18:33.067Z,20.86
2022-08-26T12:21:10.460Z,20.87
2022-08-26T12:24:06.746Z,20.94
2022-08-26T12:26:36.758Z,21.09
2022-08-26T12:29:20.017Z,21.10
2022-08-26T12:32:14.432Z,21.04
2022-08-26T12:34:42.630Z,21.01
2022-08-26T12:37:12.969Z,21.12
2022-08-26T12:39:43.057Z,21.13
2022-08-26T12:42:12.903Z,21.14
2022-08-26T12:45:06.531Z,21.14
2022-08-26T12:47:43.970Z,21.05
2022-08-26T12:50:21.393Z,21.15
2022-08-26T12:53:00.681Z,21.08
2022-08-26T12:55:42.510Z,20.93
2022-08-26T12:58:15.290Z,21.08
2022-08-26T13:00:45.033Z,21.12
2022-08-26T13:03:33.763Z,21.17
2022-08-26T13:07:04.141Z,21.20
2022-08-26T13:09:31.419Z,21.37
2022-08-26T13:11:59.368Z,21.53
2022-08-26T13:14:29.058Z,21.51
2022-08-26T13:16:55.705Z,21.43
2022-08-26T13:19:25.554Z,21.35
2022-08-26T13:21:55.461Z,21.36
2022-08-26T13:24:22.265Z,21.38
2022-08-26T13:26:50.341Z,21.19
2022-08-26T13:29:18.560Z,21.33
2022-08-26T13:31:46.253Z,21.34
2022-08-26T13:34:20.517Z,21.45
2022-08-26T13:36:49.739Z,21.69
2022-08-26T13:39:17.525Z,21.69
2022-08-26T13:41:44.459Z,21.72
2022-08-26T13:44:13.649Z,21.72
2022-08-26T13:46:40.858Z,21.75
2022-08-26T13:49:07.877Z,21.81
2022-08-26T13:51:35.197Z,21.72
2022-08-26T13:54:01.898Z,21.71
2022-08-26T13:56:29.931Z,21.61
2022-08-26T13:58:58.077Z,21.60
2022-08-26T14:01:25.295Z,21.52
2022-08-26T14:03:53.148Z,21.59
2022-08-26T14:06:27.687Z,21.49
2022-08-26T14:08:54.855Z,21.51
2022-08-26T14:11:22.463Z,21.40
2022-08-26T14:13:50.305Z,21.28
2022-08-26T14:16:29.103Z,21.30
2022-08-26T14:19:05.883Z,21.27
2022-08-26T14:21:38.578Z,21.28
2022-08-26T14:24:06.551Z,21.28
2022-08-26T14:26:33.454Z,21.39
2022-08-26T14:29:03.962Z,21.43
2022-08-26T14:31:34.912Z,21.39
2022-08-26T14:34:07.044Z,21.39
2022-08-26T14:36:35.279Z,21.42
2022-08-26T14:39:09.590Z,21.34
2022-08-26T14:41:42.798Z,21.23
2022-08-26T14:44:14.031Z,21.32
2022-08-26T14:46:47.286Z,21.32
2022-08-26T14:49:14.688Z,21.56
2022-08-26T14:51:42.726Z,21.50
2022-08-26T14:54:19.092Z,21.51
2022-08-26T14:57:01.957Z,21.58
2022-08-26T14:59:49.615Z,21.63
2022-08-26T15:02:33.232Z,21.71
2022-08-26T15:05:04.150Z,21.72
2022-08-26T15:07:31.390Z,21.76
2022-08-26T15:10:00.302Z,21.71
2022-08-26T15:12:27.868Z,21.62
2022-08-26T15:14:55.008Z,21.77
2022-08-26T15:17:21.928Z,21.83
2022-08-26T15:19:49.050Z,21.91
2022-08-26T15:22:22.193Z,21.89
2022-08-26T15:24:56.316Z,22.10
2022-08-26T15:27:23.897Z,22.16
2022-08-26T15:29:51.729Z,22.26
2022-08-26T15:32:19.007Z,22.03
2022-08-26T15:34:46.380Z,21.92
2022-08-26T15:37:13.307Z,21.81
2022-08-26T15:39:49.675Z,21.81
2022-08-26T15:42:23.778Z,21.88
2022-08-26T15:44:52.779Z,21.76
2022-08-26T15:47:19.969Z,21.76
2022-08-26T15:49:56.811Z,21.78
2022-08-26T15:52:26.815Z,21.68
2022-08-26T15:54:55.761Z,21.70
2022-08-26T15:57:25.700Z,21.76
2022-08-26T15:59:56.677Z,21.83
2022-08-26T16:02:30.418Z,21.94
2022-08-26T16:05:00.130Z,21.89
2022-08-26T16:07:27.107Z,21.98
2022-08-26T16:09:56.989Z,21.82
2022-08-26T16:12:23.715Z,21.77
2022-08-26T16:14:56.299Z,21.74
2022-08-26T16:17:28.975Z,21.69
2022-08-26T16:19:56.426Z,21.57
2022-08-26T16:22:23.442Z,21.70
2022-08-26T16:24:50.519Z,21.62
2022-08-26T16:27:23.157Z,21.62
2022-08-26T16:29:50.119Z,21.70
2022-08-26T16:32:16.876Z,21.66
2022-08-26T16:34:47.135Z,21.63
2022-08-26T16:37:23.827Z,21.44
2022-08-26T16:39:53.784Z,21.41
2022-08-26T16:42:20.606Z,21.29
2022-08-26T16:44:49.936Z,21.24
2022-08-26T16:47:21.475Z,21.42
2022-08-26T16:49:49.388Z,21.34
2022-08-26T16:52:16.319Z,21.22
2022-08-26T16:54:43.731Z,21.23
2022-08-26T16:57:14.587Z,21.28
2022-08-26T16:59:41.884Z,21.24
2022-08-26T17:02:10.584Z,21.20
2022-08-26T17:04:41.058Z,21.23
2022-08-26T17:07:12.896Z,21.25
2022-08-26T17:09:45.864Z,21.09
2022-08-26T17:12:19.158Z,21.00
2022-08-26T17:14:46.036Z,21.01
2022-08-26T17:17:12.975Z,20.90
2022-08-26T17:19:47.015Z,21.03
2022-08-26T17:22:15.451Z,20.86
2022-08-26T17:24:43.651Z,20.78
2022-08-26T17:27:10.766Z,20.67
2022-08-26T17:29:37.509Z,20.89
2022-08-26T17:32:04.762Z,20.70
2022-08-26T17:34:43.395Z,20.73
2022-08-26T17:37:10.638Z,20.70
2022-08-26T17:39:42.514Z,20.60
2022-08-26T17:42:11.913Z,20.48
2022-08-26T17:44:38.873Z,20.59
2022-08-26T17:47:07.268Z,20.57
2022-08-26T17:49:34.772Z,20.59
2022-08-26T17:52:02.070Z,20.58
2022-08-26T17:54:30.186Z,20.51
2022-08-26T17:56:59.108Z,20.45
2022-08-26T17:59:31.407Z,20.47
2022-08-26T18:02:02.418Z,20.36
2022-08-26T18:04:29.213Z,20.32
2022-08-26T18:06:58.590Z,20.39
2022-08-26T18:09:25.537Z,20.17
2022-08-26T18:11:52.772Z,20.16
2022-08-26T18:14:19.818Z,20.46
2022-08-26T18:16:49.405Z,20.29
2022-08-26T18:19:16.912Z,20.24
2022-08-26T18:21:44.135Z,20.09
2022-08-26T18:24:13.981Z,20.17
2022-08-26T18:26:48.820Z,20.11
2022-08-26T18:29:18.475Z,20.13
2022-08-26T18:32:02.989Z,20.12
2022-08-26T18:34:31.637Z,20.08
2022-08-26T18:37:00.279Z,20.23
2022-08-26T18:39:27.349Z,20.03
2022-08-26T18:41:54.314Z,20.06
2022-08-26T18:44:23.331Z,19.93
2022-08-26T18:46:53.224Z,20.03
2022-08-26T18:49:24.517Z,19.85
2022-08-26T18:51:52.410Z,19.94
2022-08-26T18:56:47.595Z,20.02
2022-08-26T18:59:14.766Z,19.92
2022-08-26T19:01:42.775Z,19.93
2022-08-26T19:04:14.107Z,19.78
2022-08-26T19:06:43.410Z,19.74
2022-08-26T19:09:12.109Z,19.88
2022-08-26T19:11:42.912Z,19.86
2022-08-26T19:14:13.701Z,19.87
2022-08-26T19:16:43.180Z,19.78
2022-08-26T19:19:10.944Z,19.83
2022-08-26T19:21:39.085Z,19.75
2022-08-26T19:24:09.422Z,19.70
2022-08-26T19:26:36.731Z,19.77
2022-08-26T19:29:03.941Z,19.74
2022-08-26T19:31:31.234Z,19.69
2022-08-26T19:33:59.124Z,19.90
2022-08-26T19:36:27.561Z,19.76
2022-08-26T19:38:56.751Z,19.70
2022-08-26T19:41:37.560Z,19.63
2022-08-26T19:44:34.718Z,19.62
2022-08-26T19:47:03.643Z,19.72
2022-08-26T19:49:30.862Z,19.69
2022-08-26T19:51:58.147Z,19.69
2022-08-26T19:54:25.502Z,19.82
2022-08-26T19:56:52.204Z,19.60
2022-08-26T19:59:19.147Z,19.62
2022-08-26T20:01:46.453Z,19.54
2022-08-26T20:04:27.657Z,19.64
2022-08-26T20:06:57.819Z,19.61
2022-08-26T20:09:30.781Z,19.53
2022-08-26T20:11:57.826Z,19.43
2022-08-26T20:14:28.785Z,19.37
2022-08-26T20:16:55.825Z,19.29
2022-08-26T20:19:42.846Z,19.39
2022-08-26T20:22:10.404Z,19.38
2022-08-26T20:24:37.545Z,19.34
2022-08-26T20:27:07.811Z,19.46
2022-08-26T20:29:36.295Z,19.40
2022-08-26T20:32:03.581Z,19.32
2022-08-26T20:34:34.113Z,19.41
2022-08-26T20:37:00.914Z,19.32
2022-08-26T20:39:29.615Z,19.19
2022-08-26T20:41:57.844Z,19.27
2022-08-26T20:44:25.316Z,19.19
2022-08-26T20:46:52.067Z,19.15
2022-08-26T20:49:18.997Z,19.10
2022-08-26T20:51:48.114Z,19.02
2022-08-26T20:54:15.444Z,19.02
2022-08-26T20:56:42.565Z,19.02
2022-08-26T20:59:09.695Z,18.88
2022-08-26T21:01:41.924Z,18.87
2022-08-26T21:04:18.956Z,18.84
2022-08-26T21:06:49.884Z,18.75
2022-08-26T21:09:19.287Z,18.79
2022-08-26T21:11:46.097Z,18.85
2022-08-26T21:14:16.147Z,18.52
2022-08-26T21:16:47.959Z,18.35
2022-08-26T21:19:18.229Z,18.19
2022-08-26T21:21:49.579Z,18.09
2022-08-26T21:24:17.175Z,18.04
2022-08-26T21:26:44.585Z,17.84
2022-08-26T21:29:13.559Z,17.78
2022-08-26T21:31:45.784Z,17.85
2022-08-26T21:34:18.448Z,17.81
2022-08-26T21:36:49.686Z,17.66
2022-08-26T21:39:17.200Z,17.63
2022-08-26T21:41:45.811Z,17.45
2022-08-26T21:44:17.103Z,17.41
2022-08-26T21:46:45.812Z,17.27
2022-08-26T21:49:15.771Z,17.17
2022-08-26T21:51:45.833Z,17.12
2022-08-26T21:54:14.153Z,17.13
2022-08-26T21:56:45.264Z,17.08
2022-08-26T21:59:17.241Z,16.97
2022-08-26T22:01:44.658Z,16.92
2022-08-26T22:04:12.059Z,16.76
2022-08-26T22:06:43.333Z,16.72
2022-08-26T22:09:11.584Z,16.68
2022-08-26T22:11:38.637Z,16.56
2022-08-26T22:14:06.733Z,16.55
2022-08-26T22:16:33.862Z,16.54
2022-08-26T22:19:00.984Z,16.47
2022-08-26T22:21:28.519Z,16.44
2022-08-26T22:23:58.288Z,16.62
2022-08-26T22:26:29.818Z,16.59
2022-08-26T22:28:59.097Z,16.44
2022-08-26T22:31:37.283Z,16.29
2022-08-26T22:34:10.624Z,16.23
2022-08-26T22:36:43.111Z,16.14
2022-08-26T22:39:13.596Z,16.21
2022-08-26T22:41:43.012Z,16.19
2022-08-26T22:44:11.677Z,16.14
2022-08-26T22:46:39.723Z,16.19
2022-08-26T22:49:09.597Z,16.14
2022-08-26T22:51:37.309Z,16.05
2022-08-26T22:54:04.815Z,16.04
2022-08-26T22:56:31.974Z,16.01
2022-08-26T22:58:58.844Z,15.95
2022-08-26T23:01:25.947Z,15.99
2022-08-26T23:03:55.551Z,16.03
2022-08-26T23:06:24.703Z,15.97
2022-08-26T23:08:52.192Z,15.94
2022-08-26T23:11:19.305Z,15.99
2022-08-26T23:13:45.980Z,15.87
2022-08-26T23:16:13.649Z,15.78
2022-08-26T23:18:44.018Z,15.73
2022-08-26T23:21:10.750Z,15.77
2022-08-26T23:23:38.450Z,15.74
2022-08-26T23:26:06.972Z,15.76
2022-08-26T23:28:36.072Z,15.75
2022-08-26T23:31:03.132Z,15.74
2022-08-26T23:33:49.802Z,15.76
2022-08-26T23:36:22.775Z,15.66
2022-08-26T23:38:52.751Z,15.72
2022-08-26T23:41:22.664Z,15.78
2022-08-26T23:43:49.571Z,15.72
2022-08-26T23:46:16.266Z,15.63
2022-08-26T23:48:43.301Z,15.53
2022-08-26T23:51:29.808Z,15.65
2022-08-26T23:53:57.518Z,15.62
2022-08-26T23:56:24.725Z,15.66
2022-08-26T23:58:54.449Z,15.58
